sensor_id;sensor_type;location;lat;lon;timestamp;P1;durP1;ratioP1;P2;durP2;ratioP2
43905;SDS011;29564;46.622;13.818;2024-01-10T04:48:17;2.17;;;1.52;;
43905;SDS011;29564;46.622;13.818;2024-01-10T04:49:19;4.88;;;2.30;;
43905;SDS011;29564;46.622;13.818;2024-01-10T04:50:21;5.05;;;2.35;;
43905;SDS011;29564;46.622;13.818;2024-01-10T04:51:22;3.85;;;2.47;;
43905;SDS011;29564;46.622;13.818;2024-01-10T04:52:24;4.60;;;1.85;;
43905;SDS011;29564;46.622;13.818;2024-01-10T04:53:26;5.00;;;2.53;;
43905;SDS011;29564;46.622;13.818;2024-01-10T04:54:27;6.15;;;2.70;;
43905;SDS011;29564;46.622;13.818;2024-01-10T04:55:29;5.88;;;2.67;;
43905;SDS011;29564;46.622;13.818;2024-01-10T04:56:31;5.78;;;2.13;;
43905;SDS011;29564;46.622;13.818;2024-01-10T04:57:33;9.32;;;2.83;;
43905;SDS011;29564;46.622;13.818;2024-01-10T04:58:34;9.38;;;3.17;;
43905;SDS011;29564;46.622;13.818;2024-01-10T04:59:37;6.75;;;2.58;;
43905;SDS011;29564;46.622;13.818;2024-01-10T05:00:39;5.68;;;3.03;;
43905;SDS011;29564;46.622;13.818;2024-01-10T05:01:40;5.95;;;3.53;;
43905;SDS011;29564;46.622;13.818;2024-01-10T05:02:42;8.82;;;3.38;;
43905;SDS011;29564;46.622;13.818;2024-01-10T05:03:44;8.85;;;3.88;;
43905;SDS011;29564;46.622;13.818;2024-01-10T05:04:46;7.00;;;2.50;;
43905;SDS011;29564;46.622;13.818;2024-01-10T05:05:48;7.28;;;3.40;;
43905;SDS011;29564;46.622;13.818;2024-01-10T05:06:49;7.43;;;2.72;;
43905;SDS011;29564;46.622;13.818;2024-01-10T05:07:51;8.20;;;3.58;;
43905;SDS011;29564;46.622;13.818;2024-01-10T05:08:53;5.18;;;3.28;;
43905;SDS011;29564;46.622;13.818;2024-01-10T05:09:58;5.07;;;2.80;;
43905;SDS011;29564;46.622;13.818;2024-01-10T05:11:00;12.60;;;3.75;;
43905;SDS011;29564;46.622;13.818;2024-01-10T05:12:02;5.82;;;2.63;;
43905;SDS011;29564;46.622;13.818;2024-01-10T05:13:03;5.68;;;2.45;;
43905;SDS011;29564;46.622;13.818;2024-01-10T05:14:05;6.05;;;2.58;;
43905;SDS011;29564;46.622;13.818;2024-01-10T05:15:07;6.05;;;2.20;;
43905;SDS011;29564;46.622;13.818;2024-01-10T05:16:12;4.82;;;2.30;;
43905;SDS011;29564;46.622;13.818;2024-01-10T05:17:13;6.28;;;2.70;;
43905;SDS011;29564;46.622;13.818;2024-01-10T05:18:16;7.55;;;2.95;;
43905;SDS011;29564;46.622;13.818;2024-01-10T05:19:18;4.30;;;2.53;;
43905;SDS011;29564;46.622;13.818;2024-01-10T05:20:20;8.32;;;3.28;;
43905;SDS011;29564;46.622;13.818;2024-01-10T05:21:22;9.30;;;3.05;;
43905;SDS011;29564;46.622;13.818;2024-01-10T05:22:23;6.28;;;2.80;;
43905;SDS011;29564;46.622;13.818;2024-01-10T05:23:25;7.68;;;3.20;;
43905;SDS011;29564;46.622;13.818;2024-01-10T05:24:27;6.90;;;3.42;;
43905;SDS011;29564;46.622;13.818;2024-01-10T05:25:29;8.18;;;2.85;;
43905;SDS011;29564;46.622;13.818;2024-01-10T05:26:31;8.43;;;2.45;;
43905;SDS011;29564;46.622;13.818;2024-01-10T05:27:33;5.53;;;2.35;;
43905;SDS011;29564;46.622;13.818;2024-01-10T05:28:35;6.68;;;2.80;;
43905;SDS011;29564;46.622;13.818;2024-01-10T05:29:36;5.05;;;2.38;;
43905;SDS011;29564;46.622;13.818;2024-01-10T05:30:38;6.18;;;2.63;;
43905;SDS011;29564;46.622;13.818;2024-01-10T05:31:42;8.13;;;3.13;;
43905;SDS011;29564;46.622;13.818;2024-01-10T05:32:44;10.35;;;3.80;;
43905;SDS011;29564;46.622;13.818;2024-01-10T05:33:46;10.15;;;2.35;;
43905;SDS011;29564;46.622;13.818;2024-01-10T05:34:47;11.55;;;3.17;;
43905;SDS011;29564;46.622;13.818;2024-01-10T05:35:52;8.27;;;3.83;;
43905;SDS011;29564;46.622;13.818;2024-01-10T05:36:54;4.80;;;2.72;;
43905;SDS011;29564;46.622;13.818;2024-01-10T05:37:56;4.82;;;3.00;;
43905;SDS011;29564;46.622;13.818;2024-01-10T05:38:57;5.00;;;3.03;;
43905;SDS011;29564;46.622;13.818;2024-01-10T05:39:59;11.32;;;2.85;;
43905;SDS011;29564;46.622;13.818;2024-01-10T05:41:01;7.93;;;3.80;;
43905;SDS011;29564;46.622;13.818;2024-01-10T05:42:09;6.78;;;2.92;;
43905;SDS011;29564;46.622;13.818;2024-01-10T05:43:11;7.88;;;3.72;;
43905;SDS011;29564;46.622;13.818;2024-01-10T05:44:13;5.47;;;2.33;;
43905;SDS011;29564;46.622;13.818;2024-01-10T05:45:15;5.60;;;3.25;;
43905;SDS011;29564;46.622;13.818;2024-01-10T05:46:19;7.50;;;2.85;;
43905;SDS011;29564;46.622;13.818;2024-01-10T05:47:21;6.95;;;3.25;;
43905;SDS011;29564;46.622;13.818;2024-01-10T05:48:26;7.97;;;2.55;;
43905;SDS011;29564;46.622;13.818;2024-01-10T05:49:28;5.65;;;3.10;;
43905;SDS011;29564;46.622;13.818;2024-01-10T05:50:30;3.13;;;1.75;;
43905;SDS011;29564;46.622;13.818;2024-01-10T05:51:32;8.70;;;3.05;;
43905;SDS011;29564;46.622;13.818;2024-01-10T05:52:34;9.75;;;3.28;;
43905;SDS011;29564;46.622;13.818;2024-01-10T05:53:36;5.90;;;2.40;;
43905;SDS011;29564;46.622;13.818;2024-01-10T05:54:44;6.93;;;3.03;;
43905;SDS011;29564;46.622;13.818;2024-01-10T05:55:46;5.60;;;2.78;;
43905;SDS011;29564;46.622;13.818;2024-01-10T05:56:47;6.40;;;3.00;;
43905;SDS011;29564;46.622;13.818;2024-01-10T05:57:49;5.30;;;2.83;;
43905;SDS011;29564;46.622;13.818;2024-01-10T05:58:50;6.30;;;2.53;;
43905;SDS011;29564;46.622;13.818;2024-01-10T05:59:52;9.27;;;3.67;;
43905;SDS011;29564;46.622;13.818;2024-01-10T06:00:57;4.15;;;2.35;;
43905;SDS011;29564;46.622;13.818;2024-01-10T06:01:58;5.70;;;2.72;;
43905;SDS011;29564;46.622;13.818;2024-01-10T06:03:00;6.75;;;3.25;;
43905;SDS011;29564;46.622;13.818;2024-01-10T06:04:01;7.75;;;3.78;;
43905;SDS011;29564;46.622;13.818;2024-01-10T06:05:03;9.25;;;4.18;;
43905;SDS011;29564;46.622;13.818;2024-01-10T06:06:06;9.40;;;3.90;;
43905;SDS011;29564;46.622;13.818;2024-01-10T06:07:08;10.98;;;4.03;;
43905;SDS011;29564;46.622;13.818;2024-01-10T06:08:10;7.07;;;3.45;;
43905;SDS011;29564;46.622;13.818;2024-01-10T06:09:11;7.28;;;3.60;;
43905;SDS011;29564;46.622;13.818;2024-01-10T06:10:13;10.90;;;3.03;;
43905;SDS011;29564;46.622;13.818;2024-01-10T06:11:15;5.70;;;3.10;;
43905;SDS011;29564;46.622;13.818;2024-01-10T06:12:16;7.13;;;3.45;;
43905;SDS011;29564;46.622;13.818;2024-01-10T06:13:18;8.00;;;3.45;;
43905;SDS011;29564;46.622;13.818;2024-01-10T06:14:20;6.97;;;3.22;;
43905;SDS011;29564;46.622;13.818;2024-01-10T06:15:21;9.55;;;3.63;;
43905;SDS011;29564;46.622;13.818;2024-01-10T06:16:23;8.20;;;2.83;;
43905;SDS011;29564;46.622;13.818;2024-01-10T06:17:25;6.82;;;2.92;;
43905;SDS011;29564;46.622;13.818;2024-01-10T06:18:26;7.18;;;3.30;;
43905;SDS011;29564;46.622;13.818;2024-01-10T06:19:28;9.60;;;3.95;;
43905;SDS011;29564;46.622;13.818;2024-01-10T06:20:30;7.18;;;4.28;;
43905;SDS011;29564;46.622;13.818;2024-01-10T06:21:32;8.00;;;3.28;;
43905;SDS011;29564;46.622;13.818;2024-01-10T06:22:34;11.25;;;5.47;;
43905;SDS011;29564;46.622;13.818;2024-01-10T06:23:36;7.55;;;4.05;;
43905;SDS011;29564;46.622;13.818;2024-01-10T06:24:37;8.77;;;4.50;;
43905;SDS011;29564;46.622;13.818;2024-01-10T06:25:39;9.77;;;4.28;;
43905;SDS011;29564;46.622;13.818;2024-01-10T06:26:40;19.90;;;4.75;;
43905;SDS011;29564;46.622;13.818;2024-01-10T06:27:42;10.73;;;4.85;;
43905;SDS011;29564;46.622;13.818;2024-01-10T06:28:44;9.48;;;5.03;;
43905;SDS011;29564;46.622;13.818;2024-01-10T06:29:45;10.35;;;4.45;;
43905;SDS011;29564;46.622;13.818;2024-01-10T06:30:47;12.90;;;5.03;;
43905;SDS011;29564;46.622;13.818;2024-01-10T06:31:48;11.10;;;4.53;;
43905;SDS011;29564;46.622;13.818;2024-01-10T06:32:50;8.73;;;4.57;;
43905;SDS011;29564;46.622;13.818;2024-01-10T06:33:52;6.15;;;3.00;;
43905;SDS011;29564;46.622;13.818;2024-01-10T06:34:53;10.60;;;4.38;;
43905;SDS011;29564;46.622;13.818;2024-01-10T06:35:55;10.00;;;4.15;;
43905;SDS011;29564;46.622;13.818;2024-01-10T06:36:57;9.13;;;3.05;;
43905;SDS011;29564;46.622;13.818;2024-01-10T06:37:59;6.55;;;3.13;;
43905;SDS011;29564;46.622;13.818;2024-01-10T06:39:04;7.53;;;4.25;;
43905;SDS011;29564;46.622;13.818;2024-01-10T06:40:05;11.40;;;4.15;;
43905;SDS011;29564;46.622;13.818;2024-01-10T06:41:10;6.18;;;3.58;;
43905;SDS011;29564;46.622;13.818;2024-01-10T06:42:15;8.40;;;3.03;;
43905;SDS011;29564;46.622;13.818;2024-01-10T06:43:16;16.35;;;3.65;;
43905;SDS011;29564;46.622;13.818;2024-01-10T06:44:18;8.50;;;3.05;;
43905;SDS011;29564;46.622;13.818;2024-01-10T06:45:19;9.85;;;3.72;;
43905;SDS011;29564;46.622;13.818;2024-01-10T06:46:21;5.82;;;3.20;;
43905;SDS011;29564;46.622;13.818;2024-01-10T06:47:23;9.15;;;3.13;;
43905;SDS011;29564;46.622;13.818;2024-01-10T06:48:24;8.95;;;4.25;;
43905;SDS011;29564;46.622;13.818;2024-01-10T06:49:26;9.27;;;4.28;;
43905;SDS011;29564;46.622;13.818;2024-01-10T06:50:28;6.53;;;3.05;;
43905;SDS011;29564;46.622;13.818;2024-01-10T06:51:31;9.48;;;3.13;;
43905;SDS011;29564;46.622;13.818;2024-01-10T06:52:33;13.70;;;3.67;;
43905;SDS011;29564;46.622;13.818;2024-01-10T06:53:34;5.90;;;3.28;;
43905;SDS011;29564;46.622;13.818;2024-01-10T06:54:36;7.88;;;3.28;;
43905;SDS011;29564;46.622;13.818;2024-01-10T06:55:37;11.38;;;3.63;;
43905;SDS011;29564;46.622;13.818;2024-01-10T06:56:39;7.25;;;3.00;;
43905;SDS011;29564;46.622;13.818;2024-01-10T06:57:41;11.27;;;2.85;;
43905;SDS011;29564;46.622;13.818;2024-01-10T06:58:43;11.25;;;3.42;;
43905;SDS011;29564;46.622;13.818;2024-01-10T06:59:47;5.90;;;3.50;;
43905;SDS011;29564;46.622;13.818;2024-01-10T07:00:49;8.32;;;3.53;;
43905;SDS011;29564;46.622;13.818;2024-01-10T07:01:52;7.82;;;3.33;;
43905;SDS011;29564;46.622;13.818;2024-01-10T07:02:53;7.47;;;2.80;;
43905;SDS011;29564;46.622;13.818;2024-01-10T07:03:55;5.82;;;3.47;;
43905;SDS011;29564;46.622;13.818;2024-01-10T07:04:57;7.50;;;3.28;;
43905;SDS011;29564;46.622;13.818;2024-01-10T07:05:58;15.32;;;6.75;;
43905;SDS011;29564;46.622;13.818;2024-01-10T07:07:00;16.75;;;8.35;;
43905;SDS011;29564;46.622;13.818;2024-01-10T07:08:03;16.67;;;7.13;;
43905;SDS011;29564;46.622;13.818;2024-01-10T07:09:04;12.18;;;6.63;;
43905;SDS011;29564;46.622;13.818;2024-01-10T07:10:06;21.50;;;8.38;;
43905;SDS011;29564;46.622;13.818;2024-01-10T07:11:08;23.13;;;8.45;;
43905;SDS011;29564;46.622;13.818;2024-01-10T07:12:11;17.77;;;8.15;;
43905;SDS011;29564;46.622;13.818;2024-01-10T07:13:13;12.20;;;6.80;;
43905;SDS011;29564;46.622;13.818;2024-01-10T07:14:15;12.30;;;5.22;;
43905;SDS011;29564;46.622;13.818;2024-01-10T07:15:16;17.50;;;6.82;;
43905;SDS011;29564;46.622;13.818;2024-01-10T07:16:18;13.25;;;5.30;;
43905;SDS011;29564;46.622;13.818;2024-01-10T07:17:20;13.38;;;5.80;;
43905;SDS011;29564;46.622;13.818;2024-01-10T07:18:23;18.20;;;6.07;;
43905;SDS011;29564;46.622;13.818;2024-01-10T07:19:24;16.58;;;5.25;;
43905;SDS011;29564;46.622;13.818;2024-01-10T07:20:26;7.63;;;3.10;;
43905;SDS011;29564;46.622;13.818;2024-01-10T07:21:28;7.10;;;3.30;;
43905;SDS011;29564;46.622;13.818;2024-01-10T07:22:29;7.45;;;4.05;;
43905;SDS011;29564;46.622;13.818;2024-01-10T07:23:31;10.05;;;5.15;;
43905;SDS011;29564;46.622;13.818;2024-01-10T07:24:32;11.10;;;5.13;;
43905;SDS011;29564;46.622;13.818;2024-01-10T07:25:35;11.07;;;4.60;;
43905;SDS011;29564;46.622;13.818;2024-01-10T07:26:37;8.35;;;3.35;;
43905;SDS011;29564;46.622;13.818;2024-01-10T07:27:39;6.35;;;3.67;;
43905;SDS011;29564;46.622;13.818;2024-01-10T07:28:41;9.30;;;4.30;;
43905;SDS011;29564;46.622;13.818;2024-01-10T07:29:43;6.80;;;3.38;;
43905;SDS011;29564;46.622;13.818;2024-01-10T07:30:44;8.18;;;3.65;;
43905;SDS011;29564;46.622;13.818;2024-01-10T07:31:47;8.82;;;3.30;;
43905;SDS011;29564;46.622;13.818;2024-01-10T07:32:48;11.15;;;3.58;;
43905;SDS011;29564;46.622;13.818;2024-01-10T07:33:50;5.82;;;3.80;;
43905;SDS011;29564;46.622;13.818;2024-01-10T07:34:52;9.77;;;3.53;;
43905;SDS011;29564;46.622;13.818;2024-01-10T07:35:53;8.82;;;4.53;;
43905;SDS011;29564;46.622;13.818;2024-01-10T07:36:55;10.23;;;3.75;;
43905;SDS011;29564;46.622;13.818;2024-01-10T07:37:57;11.30;;;4.03;;
43905;SDS011;29564;46.622;13.818;2024-01-10T07:38:59;9.13;;;4.15;;
43905;SDS011;29564;46.622;13.818;2024-01-10T07:40:01;6.68;;;3.78;;
43905;SDS011;29564;46.622;13.818;2024-01-10T07:41:04;8.25;;;3.92;;
43905;SDS011;29564;46.622;13.818;2024-01-10T07:42:05;12.45;;;4.70;;
43905;SDS011;29564;46.622;13.818;2024-01-10T07:43:07;8.90;;;4.50;;
43905;SDS011;29564;46.622;13.818;2024-01-10T07:44:11;9.00;;;3.42;;
43905;SDS011;29564;46.622;13.818;2024-01-10T07:45:13;7.35;;;4.28;;
43905;SDS011;29564;46.622;13.818;2024-01-10T07:46:15;9.27;;;3.92;;
43905;SDS011;29564;46.622;13.818;2024-01-10T07:47:16;7.70;;;3.17;;
43905;SDS011;29564;46.622;13.818;2024-01-10T07:48:18;9.73;;;4.05;;
43905;SDS011;29564;46.622;13.818;2024-01-10T07:49:20;6.05;;;3.15;;
43905;SDS011;29564;46.622;13.818;2024-01-10T07:50:24;8.45;;;3.78;;
43905;SDS011;29564;46.622;13.818;2024-01-10T07:51:28;6.22;;;3.78;;
43905;SDS011;29564;46.622;13.818;2024-01-10T07:52:30;7.45;;;3.75;;
43905;SDS011;29564;46.622;13.818;2024-01-10T07:53:31;9.32;;;3.38;;
43905;SDS011;29564;46.622;13.818;2024-01-10T07:54:33;12.68;;;4.10;;
43905;SDS011;29564;46.622;13.818;2024-01-10T07:55:35;8.93;;;3.95;;
43905;SDS011;29564;46.622;13.818;2024-01-10T07:56:36;9.77;;;4.75;;
43905;SDS011;29564;46.622;13.818;2024-01-10T07:57:38;12.35;;;4.32;;
43905;SDS011;29564;46.622;13.818;2024-01-10T07:58:42;7.97;;;3.50;;
43905;SDS011;29564;46.622;13.818;2024-01-10T07:59:44;7.13;;;3.50;;
43905;SDS011;29564;46.622;13.818;2024-01-10T08:00:46;8.20;;;3.88;;
43905;SDS011;29564;46.622;13.818;2024-01-10T08:01:56;7.43;;;3.95;;
43905;SDS011;29564;46.622;13.818;2024-01-10T08:02:59;7.88;;;3.50;;
43905;SDS011;29564;46.622;13.818;2024-01-10T08:04:00;7.93;;;3.90;;
43905;SDS011;29564;46.622;13.818;2024-01-10T08:05:05;5.13;;;3.20;;
43905;SDS011;29564;46.622;13.818;2024-01-10T08:06:10;9.18;;;4.80;;
43905;SDS011;29564;46.622;13.818;2024-01-10T08:07:12;10.93;;;3.15;;
43905;SDS011;29564;46.622;13.818;2024-01-10T08:08:14;5.30;;;2.97;;
43905;SDS011;29564;46.622;13.818;2024-01-10T08:09:17;10.77;;;4.22;;
43905;SDS011;29564;46.622;13.818;2024-01-10T08:10:19;2.92;;;2.22;;
43905;SDS011;29564;46.622;13.818;2024-01-10T08:11:21;7.70;;;3.88;;
43905;SDS011;29564;46.622;13.818;2024-01-10T08:12:22;4.88;;;2.45;;
43905;SDS011;29564;46.622;13.818;2024-01-10T08:13:24;6.30;;;2.53;;
43905;SDS011;29564;46.622;13.818;2024-01-10T08:14:26;2.80;;;2.50;;
43905;SDS011;29564;46.622;13.818;2024-01-10T08:15:28;6.65;;;2.78;;
43905;SDS011;29564;46.622;13.818;2024-01-10T08:16:30;6.25;;;2.70;;
43905;SDS011;29564;46.622;13.818;2024-01-10T08:17:33;6.35;;;2.40;;
43905;SDS011;29564;46.622;13.818;2024-01-10T08:18:35;5.57;;;2.50;;
43905;SDS011;29564;46.622;13.818;2024-01-10T08:19:36;4.30;;;3.03;;
43905;SDS011;29564;46.622;13.818;2024-01-10T08:20:38;5.65;;;1.90;;
43905;SDS011;29564;46.622;13.818;2024-01-10T08:21:39;4.25;;;2.63;;
43905;SDS011;29564;46.622;13.818;2024-01-10T08:22:41;4.88;;;2.78;;
43905;SDS011;29564;46.622;13.818;2024-01-10T08:23:45;6.05;;;2.13;;
43905;SDS011;29564;46.622;13.818;2024-01-10T08:24:47;7.68;;;2.80;;
43905;SDS011;29564;46.622;13.818;2024-01-10T08:25:49;7.15;;;3.70;;
43905;SDS011;29564;46.622;13.818;2024-01-10T08:26:50;3.78;;;2.58;;
43905;SDS011;29564;46.622;13.818;2024-01-10T08:27:54;6.22;;;2.25;;
43905;SDS011;29564;46.622;13.818;2024-01-10T08:28:58;8.05;;;2.83;;
43905;SDS011;29564;46.622;13.818;2024-01-10T08:29:59;5.60;;;1.73;;
43905;SDS011;29564;46.622;13.818;2024-01-10T08:31:01;3.95;;;1.98;;
43905;SDS011;29564;46.622;13.818;2024-01-10T08:32:03;4.85;;;2.75;;
43905;SDS011;29564;46.622;13.818;2024-01-10T08:33:05;5.65;;;1.90;;
43905;SDS011;29564;46.622;13.818;2024-01-10T08:34:07;3.95;;;2.78;;
43905;SDS011;29564;46.622;13.818;2024-01-10T08:35:09;6.05;;;3.03;;
43905;SDS011;29564;46.622;13.818;2024-01-10T08:36:11;4.50;;;1.83;;
43905;SDS011;29564;46.622;13.818;2024-01-10T08:37:13;4.70;;;3.20;;
43905;SDS011;29564;46.622;13.818;2024-01-10T08:38:14;5.88;;;2.70;;
43905;SDS011;29564;46.622;13.818;2024-01-10T08:39:17;4.20;;;2.00;;
43905;SDS011;29564;46.622;13.818;2024-01-10T08:40:18;6.95;;;2.90;;
43905;SDS011;29564;46.622;13.818;2024-01-10T08:41:21;4.03;;;2.28;;
43905;SDS011;29564;46.622;13.818;2024-01-10T08:42:23;14.32;;;3.38;;
43905;SDS011;29564;46.622;13.818;2024-01-10T08:43:25;4.85;;;2.45;;
43905;SDS011;29564;46.622;13.818;2024-01-10T08:44:26;8.85;;;3.13;;
43905;SDS011;29564;46.622;13.818;2024-01-10T08:45:28;6.00;;;2.60;;
43905;SDS011;29564;46.622;13.818;2024-01-10T08:46:29;5.70;;;2.50;;
43905;SDS011;29564;46.622;13.818;2024-01-10T08:47:32;3.42;;;2.10;;
43905;SDS011;29564;46.622;13.818;2024-01-10T08:48:34;3.53;;;2.25;;
43905;SDS011;29564;46.622;13.818;2024-01-10T08:49:37;7.60;;;2.72;;
43905;SDS011;29564;46.622;13.818;2024-01-10T08:50:38;4.93;;;2.75;;
43905;SDS011;29564;46.622;13.818;2024-01-10T08:51:40;5.88;;;2.75;;
43905;SDS011;29564;46.622;13.818;2024-01-10T08:52:42;7.78;;;2.95;;
43905;SDS011;29564;46.622;13.818;2024-01-10T08:53:44;3.72;;;2.13;;
43905;SDS011;29564;46.622;13.818;2024-01-10T08:54:46;5.30;;;3.10;;
43905;SDS011;29564;46.622;13.818;2024-01-10T08:55:47;6.25;;;3.28;;
43905;SDS011;29564;46.622;13.818;2024-01-10T08:56:49;6.03;;;3.45;;
43905;SDS011;29564;46.622;13.818;2024-01-10T08:57:50;5.35;;;2.25;;
43905;SDS011;29564;46.622;13.818;2024-01-10T08:58:52;4.32;;;1.77;;
43905;SDS011;29564;46.622;13.818;2024-01-10T08:59:54;4.07;;;2.22;;
43905;SDS011;29564;46.622;13.818;2024-01-10T09:00:55;4.93;;;2.30;;
43905;SDS011;29564;46.622;13.818;2024-01-10T09:01:57;6.15;;;2.00;;
43905;SDS011;29564;46.622;13.818;2024-01-10T09:02:58;6.57;;;2.95;;
43905;SDS011;29564;46.622;13.818;2024-01-10T09:04:00;8.07;;;2.67;;
43905;SDS011;29564;46.622;13.818;2024-01-10T09:05:02;5.57;;;2.42;;
43905;SDS011;29564;46.622;13.818;2024-01-10T09:06:04;6.38;;;2.80;;
43905;SDS011;29564;46.622;13.818;2024-01-10T09:07:06;7.63;;;3.63;;
43905;SDS011;29564;46.622;13.818;2024-01-10T09:08:09;9.30;;;3.67;;
43905;SDS011;29564;46.622;13.818;2024-01-10T09:09:12;6.10;;;2.72;;
43905;SDS011;29564;46.622;13.818;2024-01-10T09:10:13;9.73;;;2.60;;
43905;SDS011;29564;46.622;13.818;2024-01-10T09:11:15;7.78;;;2.60;;
43905;SDS011;29564;46.622;13.818;2024-01-10T09:12:16;7.10;;;3.58;;
43905;SDS011;29564;46.622;13.818;2024-01-10T09:13:18;4.35;;;2.60;;
43905;SDS011;29564;46.622;13.818;2024-01-10T09:14:20;5.07;;;2.83;;
43905;SDS011;29564;46.622;13.818;2024-01-10T09:15:21;4.82;;;2.60;;
43905;SDS011;29564;46.622;13.818;2024-01-10T09:16:23;5.40;;;2.70;;
43905;SDS011;29564;46.622;13.818;2024-01-10T09:17:24;4.53;;;2.55;;
43905;SDS011;29564;46.622;13.818;2024-01-10T09:18:26;8.43;;;2.75;;
43905;SDS011;29564;46.622;13.818;2024-01-10T09:19:29;5.28;;;2.65;;
43905;SDS011;29564;46.622;13.818;2024-01-10T09:20:31;6.03;;;2.90;;
43905;SDS011;29564;46.622;13.818;2024-01-10T09:21:32;6.75;;;2.72;;
43905;SDS011;29564;46.622;13.818;2024-01-10T09:22:34;5.70;;;2.50;;
43905;SDS011;29564;46.622;13.818;2024-01-10T09:23:35;4.78;;;2.00;;
43905;SDS011;29564;46.622;13.818;2024-01-10T09:24:37;5.53;;;2.83;;
43905;SDS011;29564;46.622;13.818;2024-01-10T09:25:39;4.18;;;2.38;;
43905;SDS011;29564;46.622;13.818;2024-01-10T09:26:40;3.08;;;2.03;;
43905;SDS011;29564;46.622;13.818;2024-01-10T09:27:43;3.90;;;2.42;;
43905;SDS011;29564;46.622;13.818;2024-01-10T09:28:45;4.72;;;2.42;;
43905;SDS011;29564;46.622;13.818;2024-01-10T09:29:47;9.57;;;2.70;;
43905;SDS011;29564;46.622;13.818;2024-01-10T09:30:48;5.20;;;2.90;;
43905;SDS011;29564;46.622;13.818;2024-01-10T09:31:52;7.70;;;2.63;;
43905;SDS011;29564;46.622;13.818;2024-01-10T09:32:53;5.97;;;2.22;;
43905;SDS011;29564;46.622;13.818;2024-01-10T09:33:56;6.82;;;2.28;;
43905;SDS011;29564;46.622;13.818;2024-01-10T09:34:58;4.75;;;2.60;;
43905;SDS011;29564;46.622;13.818;2024-01-10T09:36:00;7.82;;;2.65;;
43905;SDS011;29564;46.622;13.818;2024-01-10T09:37:02;4.85;;;2.03;;
43905;SDS011;29564;46.622;13.818;2024-01-10T09:38:07;1.92;;;1.42;;
43905;SDS011;29564;46.622;13.818;2024-01-10T09:39:08;5.47;;;1.90;;
43905;SDS011;29564;46.622;13.818;2024-01-10T09:40:14;7.03;;;3.13;;
43905;SDS011;29564;46.622;13.818;2024-01-10T09:41:17;4.32;;;2.05;;
43905;SDS011;29564;46.622;13.818;2024-01-10T09:42:20;3.63;;;2.15;;
43905;SDS011;29564;46.622;13.818;2024-01-10T09:43:25;4.35;;;1.98;;
43905;SDS011;29564;46.622;13.818;2024-01-10T09:44:27;8.07;;;3.00;;
43905;SDS011;29564;46.622;13.818;2024-01-10T09:45:29;7.60;;;2.65;;
43905;SDS011;29564;46.622;13.818;2024-01-10T09:46:32;4.40;;;2.35;;
43905;SDS011;29564;46.622;13.818;2024-01-10T09:47:34;10.30;;;3.05;;
43905;SDS011;29564;46.622;13.818;2024-01-10T09:48:37;6.03;;;3.05;;
43905;SDS011;29564;46.622;13.818;2024-01-10T09:49:39;7.28;;;1.58;;
43905;SDS011;29564;46.622;13.818;2024-01-10T09:50:41;5.38;;;2.53;;
43905;SDS011;29564;46.622;13.818;2024-01-10T09:51:42;4.20;;;2.22;;
43905;SDS011;29564;46.622;13.818;2024-01-10T09:52:51;4.45;;;2.58;;
43905;SDS011;29564;46.622;13.818;2024-01-10T09:53:53;4.82;;;1.92;;
43905;SDS011;29564;46.622;13.818;2024-01-10T09:54:56;10.45;;;3.50;;
43905;SDS011;29564;46.622;13.818;2024-01-10T09:55:58;6.45;;;2.38;;
43905;SDS011;29564;46.622;13.818;2024-01-10T09:57:01;7.35;;;2.30;;
43905;SDS011;29564;46.622;13.818;2024-01-10T09:58:06;4.75;;;2.35;;
43905;SDS011;29564;46.622;13.818;2024-01-10T09:59:09;6.32;;;2.05;;
43905;SDS011;29564;46.622;13.818;2024-01-10T10:00:11;7.88;;;2.58;;
43905;SDS011;29564;46.622;13.818;2024-01-10T10:01:14;6.15;;;2.45;;
43905;SDS011;29564;46.622;13.818;2024-01-10T10:02:16;7.47;;;2.38;;
43905;SDS011;29564;46.622;13.818;2024-01-10T10:03:19;5.55;;;2.95;;
43905;SDS011;29564;46.622;13.818;2024-01-10T10:04:20;7.55;;;2.42;;
43905;SDS011;29564;46.622;13.818;2024-01-10T10:05:24;7.95;;;2.08;;
43905;SDS011;29564;46.622;13.818;2024-01-10T10:06:25;4.05;;;2.13;;
43905;SDS011;29564;46.622;13.818;2024-01-10T10:07:27;5.10;;;2.05;;
43905;SDS011;29564;46.622;13.818;2024-01-10T10:08:28;4.30;;;2.60;;
43905;SDS011;29564;46.622;13.818;2024-01-10T10:09:30;5.07;;;2.10;;
43905;SDS011;29564;46.622;13.818;2024-01-10T10:10:32;6.43;;;2.72;;
43905;SDS011;29564;46.622;13.818;2024-01-10T10:11:33;6.38;;;2.72;;
43905;SDS011;29564;46.622;13.818;2024-01-10T10:12:41;7.47;;;2.97;;
43905;SDS011;29564;46.622;13.818;2024-01-10T10:13:43;3.92;;;2.08;;
43905;SDS011;29564;46.622;13.818;2024-01-10T10:14:45;7.05;;;1.83;;
43905;SDS011;29564;46.622;13.818;2024-01-10T10:15:48;9.65;;;3.10;;
43905;SDS011;29564;46.622;13.818;2024-01-10T10:17:17;9.13;;;2.53;;
43905;SDS011;29564;46.622;13.818;2024-01-10T10:18:19;3.63;;;2.45;;
43905;SDS011;29564;46.622;13.818;2024-01-10T10:19:23;7.65;;;3.03;;
43905;SDS011;29564;46.622;13.818;2024-01-10T10:20:27;8.13;;;3.58;;
43905;SDS011;29564;46.622;13.818;2024-01-10T10:21:30;8.38;;;3.08;;
43905;SDS011;29564;46.622;13.818;2024-01-10T10:22:32;6.10;;;2.58;;
43905;SDS011;29564;46.622;13.818;2024-01-10T10:23:33;9.82;;;4.18;;
43905;SDS011;29564;46.622;13.818;2024-01-10T10:24:36;5.55;;;2.88;;
43905;SDS011;29564;46.622;13.818;2024-01-10T10:25:44;5.03;;;2.65;;
43905;SDS011;29564;46.622;13.818;2024-01-10T10:26:46;6.70;;;2.75;;
43905;SDS011;29564;46.622;13.818;2024-01-10T10:27:47;12.18;;;3.10;;
43905;SDS011;29564;46.622;13.818;2024-01-10T10:28:53;5.88;;;2.45;;
43905;SDS011;29564;46.622;13.818;2024-01-10T10:29:54;5.50;;;3.33;;
43905;SDS011;29564;46.622;13.818;2024-01-10T10:30:56;6.25;;;2.15;;
43905;SDS011;29564;46.622;13.818;2024-01-10T10:32:00;13.40;;;3.40;;
43905;SDS011;29564;46.622;13.818;2024-01-10T10:33:02;3.92;;;2.05;;
43905;SDS011;29564;46.622;13.818;2024-01-10T10:34:04;4.93;;;1.85;;
43905;SDS011;29564;46.622;13.818;2024-01-10T10:35:06;7.22;;;2.95;;
43905;SDS011;29564;46.622;13.818;2024-01-10T10:36:07;7.68;;;3.35;;
43905;SDS011;29564;46.622;13.818;2024-01-10T10:37:09;6.30;;;3.15;;
43905;SDS011;29564;46.622;13.818;2024-01-10T10:38:10;8.57;;;3.33;;
43905;SDS011;29564;46.622;13.818;2024-01-10T10:39:15;7.35;;;3.35;;
43905;SDS011;29564;46.622;13.818;2024-01-10T10:40:17;5.32;;;2.65;;
43905;SDS011;29564;46.622;13.818;2024-01-10T10:41:20;7.78;;;2.88;;
43905;SDS011;29564;46.622;13.818;2024-01-10T10:42:22;4.72;;;2.78;;
43905;SDS011;29564;46.622;13.818;2024-01-10T10:43:24;10.07;;;3.25;;
43905;SDS011;29564;46.622;13.818;2024-01-10T10:44:27;6.13;;;3.33;;
43905;SDS011;29564;46.622;13.818;2024-01-10T10:45:30;12.43;;;3.35;;
43905;SDS011;29564;46.622;13.818;2024-01-10T10:46:32;5.75;;;2.35;;
43905;SDS011;29564;46.622;13.818;2024-01-10T10:47:36;7.50;;;2.97;;
43905;SDS011;29564;46.622;13.818;2024-01-10T10:48:38;6.22;;;2.15;;
43905;SDS011;29564;46.622;13.818;2024-01-10T10:49:42;5.25;;;2.10;;
43905;SDS011;29564;46.622;13.818;2024-01-10T10:50:49;4.43;;;2.42;;
43905;SDS011;29564;46.622;13.818;2024-01-10T10:51:51;5.40;;;2.22;;
43905;SDS011;29564;46.622;13.818;2024-01-10T10:52:53;9.35;;;2.92;;
43905;SDS011;29564;46.622;13.818;2024-01-10T10:53:56;9.05;;;3.13;;
43905;SDS011;29564;46.622;13.818;2024-01-10T10:54:59;8.63;;;2.47;;
43905;SDS011;29564;46.622;13.818;2024-01-10T10:56:02;6.38;;;2.75;;
43905;SDS011;29564;46.622;13.818;2024-01-10T10:57:05;3.70;;;1.85;;